CheckWX is a tool to help pilots better visualize weather data.  It is not intended as a substitute for an official pre-flight weather briefing.

13:37:39 UTC

KSKF TAF
Kelly Field Airport
San Antonio, Texas, USA
TAF AMD KSKF 211221Z 2112/2216 13010KT 9999 SCT008 BKN015 QNH2995INS TEMPO 2112/2114 BKN008 OVC015 BECMG 2115/2116 14012KT 9999 VCSH SCT040 SCT250 QNH2986INS TEMPO 2118/2202 15012G20KT BECMG 2203/2204 12008KT 9999 NSW BKN020 QNH3000INS TX36/2120Z TN25/2211Z

Sep-21@
12:00 UTC

Sep-21 @ 12:00 UTC

Sep-21@
15:00 UTC

Sep-21 @ 15:00 UTC

TAF AMD KSKF 211221Z 2112/2216 13010KT 9999 SCT008 BKN015 QNH2995INS
Wind
  • 130° at 10 KTS
Cloud Levels
  • Scattered at 800' AGL
  • Broken at 1,500' AGL

Sep-21@
12:00 UTC

Sep-21 @ 12:00 UTC

Sep-21@
14:00 UTC

Sep-21 @ 14:00 UTC

TEMPO 2112/2114 BKN008 OVC015

Temporary

Temporary Changes expected for less than half the time period

Cloud Levels
  • Broken at 800' AGL
  • Overcast at 1,500' AGL

Sep-21@
15:00 UTC

Sep-21 @ 15:00 UTC

Sep-22@
03:00 UTC

Sep-22 @ 03:00 UTC

BECMG 2115/2116 14012KT 9999 VCSH SCT040 SCT250 QNH2986INS

Becoming

Becoming Conditions expected by Sat, Sep 21, 2019 @ 16:00 UTC

Wind
  • 140° at 12 KTS
Cloud Levels
  • Scattered at 4,000' AGL
  • Scattered at 25,000' AGL

Sep-21@
18:00 UTC

Sep-21 @ 18:00 UTC

Sep-22@
02:00 UTC

Sep-22 @ 02:00 UTC

TEMPO 2118/2202 15012G20KT

Temporary

Temporary Changes expected for less than half the time period

Wind
  • 150° at 12 KTS
  • {Gusting to 20 KTS

Sep-22@
03:00 UTC

Sep-22 @ 03:00 UTC

Sep-22@
16:00 UTC

Sep-22 @ 16:00 UTC

BECMG 2203/2204 12008KT 9999 NSW BKN020 QNH3000INS TX36/2120Z TN25/2211Z

Becoming

Becoming Conditions expected by Sun, Sep 22, 2019 @ 04:00 UTC

Wind
  • 120° at 8 KTS
Conditions
No significant weather
Cloud Levels
  • Broken at 2,000' AGL